Time;durP1;ratioP1;P1;durP2;ratioP2;P2;SDS_P1;SDS_P2;PMS_P1;PMS_P2;Temp;Humidity;BMP_temperature;BMP_pressure;BME280_temperature;BME280_humidity;BME280_pressure;Samples;Min_cycle;Max_cycle;Signal;HPM_P1;HPM_P2
2022/08/31 00:05:24;;;;;;;6.97;6.47;;;17.70;78.50;;;18.60;61.26;98064.47;5021321;28;20454;-77
2022/08/31 00:07:52;;;;;;;8.63;6.57;;;17.70;78.80;;;18.84;61.69;98121.50;5027777;28;20502;-74
2022/08/31 00:10:26;;;;;;;7.97;7.37;;;17.60;79.00;;;18.75;62.21;98120.38;5031708;28;20464;-77
2022/08/31 00:12:55;;;;;;;8.03;7.23;;;17.40;79.60;;;18.71;62.37;98119.22;5037768;28;20457;-77
2022/08/31 00:15:25;;;;;;;7.83;6.73;;;17.40;80.10;;;18.37;63.42;98123.97;5033795;28;20459;-80
2022/08/31 00:17:55;;;;;;;7.93;7.13;;;17.20;80.30;;;17.95;63.24;98064.63;5022062;28;22832;-77
2022/08/31 00:20:24;;;;;;;7.67;6.87;;;17.10;80.70;;;18.44;63.13;98125.69;5023362;28;20453;-79
2022/08/31 00:22:51;;;;;;;7.07;6.30;;;17.10;81.10;;;18.33;63.30;98122.88;5018569;28;21244;-75
2022/08/31 00:25:19;;;;;;;8.07;7.27;;;17.10;81.30;;;18.40;63.25;98119.91;5015606;28;20553;-79
2022/08/31 00:27:46;;;;;;;8.10;7.27;;;17.00;81.50;;;18.46;63.01;98123.50;5030987;28;20549;-80
2022/08/31 00:30:14;;;;;;;7.80;7.03;;;17.00;81.70;;;18.34;63.31;98124.53;5020417;28;20526;-80
2022/08/31 00:32:42;;;;;;;7.80;7.00;;;16.90;82.00;;;18.19;64.05;98129.88;5013116;28;20469;-77
2022/08/31 00:35:09;;;;;;;7.80;7.20;;;16.70;82.60;;;18.17;64.26;98129.31;5023893;28;20475;-74
2022/08/31 00:37:37;;;;;;;8.13;7.43;;;16.70;83.20;;;18.34;63.59;98120.94;5020262;28;20547;-74
2022/08/31 00:40:06;;;;;;;7.93;7.23;;;16.60;83.20;;;18.24;63.94;98129.91;5017808;28;20559;-81
2022/08/31 00:42:33;;;;;;;8.70;7.90;;;16.50;83.60;;;18.23;63.94;98123.63;5035395;28;21107;-79
2022/08/31 00:45:01;;;;;;;9.47;8.60;;;16.40;83.90;;;18.17;64.36;98121.13;5028132;28;20546;-79
2022/08/31 00:47:28;;;;;;;7.67;7.07;;;16.40;84.50;;;18.23;64.22;98120.91;5025444;28;20457;-79
2022/08/31 00:49:58;;;;;;;8.00;7.30;;;16.40;84.90;;;18.19;64.25;98121.69;5022468;28;20462;-79
2022/08/31 00:52:30;;;;;;;8.20;7.37;;;16.40;85.30;;;17.76;64.98;98050.56;5018219;28;20452;-79
2022/08/31 00:55:02;;;;;;;8.60;7.83;;;16.40;85.90;;;18.05;64.70;98111.19;5023299;28;20532;-76
2022/08/31 00:57:39;;;;;;;11.17;8.97;;;16.40;85.20;;;17.85;65.66;98106.34;5020046;28;21219;-77
2022/08/31 01:00:12;;;;;;;8.30;7.50;;;16.30;85.60;;;17.74;65.40;98097.25;5030564;28;20459;-75
2022/08/31 01:02:40;;;;;;;9.00;8.10;;;16.30;85.70;;;17.90;65.36;98108.31;5016560;28;20532;-77
2022/08/31 01:05:10;;;;;;;9.57;7.70;;;16.30;85.80;;;17.94;65.21;98099.34;5024096;28;20880;-74
2022/08/31 01:07:39;;;;;;;8.13;7.43;;;16.20;86.20;;;17.94;64.94;98090.31;5025807;28;20539;-79
2022/08/31 01:10:08;;;;;;;9.20;8.40;;;16.30;86.20;;;18.00;64.77;98105.66;5023765;28;20554;-75
2022/08/31 01:12:36;;;;;;;11.00;7.63;;;16.20;86.30;;;18.05;65.14;98110.38;5025044;28;20551;-78
2022/08/31 01:15:07;;;;;;;8.60;7.80;;;16.20;86.50;;;17.93;64.87;98089.50;5018072;28;20572;-79
2022/08/31 01:17:36;;;;;;;9.63;7.83;;;16.20;86.80;;;18.14;64.70;98111.53;5020558;28;20485;-79
2022/08/31 01:20:16;;;;;;;9.80;8.73;;;16.20;86.90;;;18.11;64.73;98121.06;5036674;28;20574;-78
2022/08/31 01:23:02;;;;;;;9.47;8.63;;;16.20;86.80;;;18.14;64.71;98113.47;5030983;28;21047;-80
2022/08/31 01:25:30;;;;;;;8.57;7.80;;;16.30;87.00;;;18.07;65.59;98122.69;5026254;28;20532;-79
2022/08/31 01:27:59;;;;;;;8.40;7.63;;;16.50;86.80;;;18.17;64.83;98111.00;5039663;28;20468;-78
2022/08/31 01:30:27;;;;;;;8.40;7.67;;;16.60;86.10;;;18.17;64.99;98112.94;5037942;28;20493;-79
2022/08/31 01:32:54;;;;;;;8.57;7.77;;;16.50;86.10;;;18.21;64.64;98116.78;5030076;28;20465;-77
2022/08/31 01:35:21;;;;;;;9.77;8.77;;;16.50;86.00;;;18.09;65.52;98115.03;5025656;28;20461;-79
2022/08/31 01:37:49;;;;;;;8.73;7.90;;;16.40;86.70;;;18.06;65.38;98118.31;5028407;28;20480;-77
2022/08/31 01:40:18;;;;;;;8.83;7.90;;;16.40;86.80;;;17.98;65.62;98113.31;5023406;28;20454;-78
2022/08/31 01:42:45;;;;;;;9.33;8.53;;;16.30;87.00;;;18.04;65.42;98120.47;5025040;28;20446;-79
2022/08/31 01:45:13;;;;;;;10.23;8.23;;;16.30;87.20;;;17.95;65.89;98116.53;5039267;28;20465;-76
2022/08/31 01:47:40;;;;;;;9.83;8.90;;;16.20;87.40;;;17.88;66.01;98127.69;5041393;28;20459;-74
2022/08/31 01:50:09;;;;;;;8.60;7.87;;;16.20;87.80;;;17.93;66.05;98121.44;5026585;28;20950;-76
2022/08/31 01:52:37;;;;;;;8.73;8.03;;;16.20;88.40;;;17.62;65.94;98061.94;5031259;28;20465;-78
2022/08/31 01:55:06;;;;;;;9.30;8.50;;;16.20;88.10;;;17.88;66.22;98124.16;5027389;28;20801;-78
2022/08/31 01:57:35;;;;;;;9.23;8.33;;;16.20;88.30;;;17.96;65.93;98105.34;5031281;28;20497;-78
2022/08/31 02:00:05;;;;;;;8.67;7.80;;;16.30;88.10;;;17.98;65.49;98105.13;5026764;28;20464;-80
2022/08/31 02:02:33;;;;;;;9.97;9.00;;;16.30;87.50;;;17.90;66.03;98109.16;5029350;28;20478;-76
2022/08/31 02:05:00;;;;;;;10.37;9.00;;;16.40;87.50;;;17.80;66.36;98118.06;5025571;28;20544;-80
2022/08/31 02:07:28;;;;;;;10.13;9.13;;;16.40;87.50;;;17.81;66.53;98125.19;5035295;28;20466;-80
2022/08/31 02:09:55;;;;;;;10.47;9.57;;;16.30;87.60;;;17.76;66.33;98118.88;5026465;28;20473;-77
2022/08/31 02:12:23;;;;;;;8.47;7.77;;;16.30;87.30;;;17.73;66.83;98102.97;5023170;28;20977;-77
2022/08/31 02:14:51;;;;;;;9.27;8.47;;;16.20;88.10;;;17.90;65.91;98103.69;5032840;28;20525;-79
2022/08/31 02:17:18;;;;;;;9.97;9.07;;;16.30;87.40;;;17.86;65.87;98101.72;5023445;28;20508;-80
2022/08/31 02:19:46;;;;;;;10.30;9.00;;;16.30;87.30;;;17.75;66.45;98103.56;5020993;28;20577;-78
2022/08/31 02:22:13;;;;;;;10.57;9.57;;;16.20;87.50;;;17.74;66.49;98107.34;5026023;28;20466;-76
2022/08/31 02:24:41;;;;;;;12.87;8.90;;;16.20;88.00;;;17.51;66.92;98103.88;5024264;28;20575;-78
2022/08/31 02:27:08;;;;;;;9.13;8.33;;;16.20;87.50;;;17.54;67.21;98103.38;5024972;28;20458;-77
2022/08/31 02:29:36;;;;;;;9.83;8.83;;;16.10;87.80;;;17.65;67.02;98098.81;5022642;28;20543;-75
2022/08/31 02:32:05;;;;;;;9.90;8.70;;;16.10;88.10;;;17.69;66.97;98105.44;5025627;28;20992;-78
2022/08/31 02:34:33;;;;;;;9.60;8.80;;;16.10;88.70;;;17.45;67.53;98108.47;5022524;28;20984;-77
2022/08/31 02:37:00;;;;;;;9.83;8.67;;;16.00;88.70;;;17.24;68.14;98100.09;5023622;28;20481;-79
2022/08/31 02:39:27;;;;;;;10.17;9.10;;;15.90;89.40;;;17.23;68.41;98109.34;5042917;28;20460;-79
2022/08/31 02:41:55;;;;;;;10.50;9.50;;;15.80;89.90;;;17.12;68.85;98113.06;5024477;28;20514;-77
2022/08/31 02:44:22;;;;;;;10.90;9.77;;;15.80;90.00;;;17.18;68.87;98111.22;5030090;28;20466;-76
2022/08/31 02:46:49;;;;;;;9.60;8.80;;;15.70;90.40;;;17.23;68.94;98109.34;5023241;28;20521;-77
2022/08/31 02:49:18;;;;;;;10.83;9.73;;;15.80;90.60;;;17.19;69.29;98104.66;5031906;28;20489;-76
2022/08/31 02:51:45;;;;;;;9.70;8.90;;;15.90;90.40;;;17.23;68.98;98101.16;5030247;28;20481;-77
2022/08/31 02:54:13;;;;;;;11.03;9.50;;;15.80;90.50;;;17.03;69.66;98093.59;5034750;28;20551;-76
2022/08/31 02:56:40;;;;;;;10.30;9.40;;;15.80;90.50;;;16.83;70.33;98100.44;5032909;28;20463;-75
2022/08/31 02:59:09;;;;;;;10.60;9.60;;;15.70;90.60;;;16.78;70.72;98103.06;5041667;28;20461;-76
2022/08/31 03:01:38;;;;;;;10.83;9.70;;;15.60;91.00;;;16.98;70.07;98097.03;5033459;28;20453;-75
2022/08/31 03:04:06;;;;;;;11.70;10.60;;;15.60;91.00;;;16.67;71.02;98101.28;5032007;28;20488;-75
2022/08/31 03:06:35;;;;;;;11.60;10.60;;;15.50;91.20;;;16.91;70.13;98096.44;5035644;28;20470;-79
2022/08/31 03:09:02;;;;;;;11.13;10.23;;;15.60;91.30;;;16.99;69.80;98103.38;5032389;28;20459;-74
2022/08/31 03:11:30;;;;;;;10.10;9.23;;;15.60;91.20;;;17.03;69.64;98101.78;5023149;28;20500;-77
2022/08/31 03:13:57;;;;;;;10.87;9.87;;;15.60;91.10;;;16.99;69.74;98104.19;5016556;28;20530;-76
2022/08/31 03:16:24;;;;;;;10.90;10.00;;;15.60;91.10;;;16.83;70.59;98107.78;5022819;28;20452;-80
2022/08/31 03:18:52;;;;;;;10.17;9.37;;;15.50;91.20;;;16.29;71.39;98052.00;5017171;28;20471;-77
2022/08/31 03:21:19;;;;;;;11.47;10.47;;;15.40;91.60;;;16.52;71.48;98101.94;5024552;28;21027;-77
2022/08/31 03:23:48;;;;;;;10.67;9.87;;;15.30;92.00;;;16.61;71.05;98091.41;5024634;28;20488;-81
2022/08/31 03:26:15;;;;;;;12.20;11.00;;;15.30;92.40;;;16.40;71.92;98097.41;5016971;28;20478;-79
2022/08/31 03:28:42;;;;;;;11.50;10.50;;;15.20;92.40;;;16.40;71.83;98100.13;5029698;28;20522;-80
2022/08/31 03:31:10;;;;;;;10.87;9.97;;;15.10;92.50;;;16.40;71.64;98086.50;5020771;28;20475;-77
2022/08/31 03:33:38;;;;;;;11.13;10.10;;;15.10;92.70;;;16.61;71.64;98094.97;5024739;28;20558;-75
2022/08/31 03:36:05;;;;;;;13.73;10.60;;;15.20;93.00;;;16.67;71.12;98093.94;5022754;28;20544;-79
2022/08/31 03:38:33;;;;;;;11.50;10.40;;;15.30;92.50;;;16.74;70.97;98096.47;5017376;28;20509;-78
2022/08/31 03:41:03;;;;;;;10.80;9.80;;;15.30;92.40;;;16.63;71.16;98092.81;5019864;28;20473;-79
2022/08/31 03:43:30;;;;;;;11.27;10.20;;;15.30;92.30;;;16.56;71.26;98103.91;5025447;28;20494;-76
2022/08/31 03:45:57;;;;;;;11.37;9.90;;;15.20;92.40;;;16.65;71.25;98101.56;5024343;28;20960;-79
2022/08/31 03:48:25;;;;;;;10.23;9.23;;;15.20;92.60;;;16.57;71.35;98102.00;5029296;28;20872;-79
2022/08/31 03:50:53;;;;;;;10.73;9.00;;;15.20;92.30;;;16.60;70.92;98104.19;5030527;28;20935;-79
2022/08/31 03:53:20;;;;;;;11.13;10.10;;;15.20;92.30;;;16.66;71.04;98116.84;5043219;28;20526;-78
2022/08/31 03:55:47;;;;;;;12.43;10.50;;;15.20;92.60;;;16.55;71.25;98121.34;5027812;28;20519;-78
2022/08/31 03:58:16;;;;;;;10.63;9.63;;;15.20;92.40;;;16.55;71.40;98126.81;5035943;28;21288;-79
2022/08/31 04:00:44;;;;;;;10.20;9.27;;;15.30;92.40;;;16.58;71.58;98125.44;5026856;28;20465;-76
2022/08/31 04:03:12;;;;;;;10.73;9.73;;;15.30;92.50;;;16.51;72.05;98120.19;5028558;28;20458;-76
2022/08/31 04:05:44;;;;;;;10.40;9.60;;;15.20;92.80;;;16.40;72.27;98129.31;5028278;28;20459;-77
2022/08/31 04:08:13;;;;;;;10.27;9.37;;;15.20;92.70;;;16.29;73.10;98128.31;5023364;28;20483;-78
2022/08/31 04:10:42;;;;;;;11.93;10.17;;;15.10;93.30;;;16.47;72.45;98131.88;5015556;28;20465;-77
2022/08/31 04:13:10;;;;;;;10.90;9.90;;;15.10;93.50;;;16.40;72.38;98129.31;5024827;28;20462;-78
2022/08/31 04:15:39;;;;;;;10.90;9.87;;;15.10;93.10;;;16.17;72.65;98122.16;5025647;28;20466;-78
2022/08/31 04:18:07;;;;;;;10.53;9.73;;;15.00;93.10;;;16.07;72.93;98126.38;5024046;28;20537;-82
2022/08/31 04:20:35;;;;;;;11.00;9.90;;;14.90;93.10;;;16.06;73.06;98118.44;5021109;28;20515;-81
2022/08/31 04:23:02;;;;;;;10.23;9.43;;;14.90;93.10;;;16.25;73.18;98122.56;5037883;28;20511;-79
2022/08/31 04:25:29;;;;;;;11.23;10.20;;;15.00;93.70;;;16.28;72.45;98118.50;5022834;28;20520;-77
2022/08/31 04:27:57;;;;;;;10.57;9.57;;;15.00;93.20;;;16.31;72.02;98119.91;5030208;28;20457;-80
2022/08/31 04:30:24;;;;;;;10.73;9.73;;;15.00;93.10;;;16.45;71.74;98125.81;5026254;28;20606;-77
2022/08/31 04:32:55;;;;;;;10.47;9.47;;;15.10;92.60;;;16.40;71.87;98124.66;5022953;28;20512;-75
2022/08/31 04:35:23;;;;;;;11.57;10.37;;;15.20;92.50;;;16.66;71.39;98132.38;5022676;28;20463;-78
2022/08/31 04:37:50;;;;;;;12.27;11.00;;;15.30;92.60;;;16.72;71.05;98134.09;5025009;28;20472;-76
2022/08/31 04:40:18;;;;;;;11.27;10.10;;;15.30;92.40;;;16.45;71.29;98125.81;5018260;28;20526;-77
2022/08/31 04:42:46;;;;;;;10.30;9.40;;;15.40;91.20;;;16.32;70.95;98089.69;5019533;28;20963;-77
2022/08/31 04:45:14;;;;;;;12.13;11.13;;;15.40;91.30;;;16.68;70.93;98136.50;5017774;28;20476;-76
2022/08/31 04:47:42;;;;;;;11.53;10.50;;;15.40;91.60;;;16.66;70.52;98138.66;5028621;28;20802;-74
2022/08/31 04:50:15;;;;;;;12.37;9.90;;;15.40;91.40;;;16.23;70.14;98063.91;5027988;28;20471;-76
2022/08/31 04:52:42;;;;;;;11.80;9.37;;;15.40;91.10;;;16.76;69.95;98139.88;5026642;28;20463;-74
2022/08/31 04:55:11;;;;;;;10.50;9.60;;;15.50;90.90;;;16.86;69.69;98134.53;5021325;28;20457;-78
2022/08/31 04:57:39;;;;;;;9.70;8.70;;;15.50;90.90;;;16.98;69.80;98139.88;5026788;28;20535;-73
2022/08/31 05:00:09;;;;;;;10.50;8.80;;;15.50;91.30;;;17.04;68.91;98147.09;5030569;28;20463;-77
2022/08/31 05:02:36;;;;;;;10.40;9.50;;;15.60;90.50;;;17.13;68.50;98142.00;5032424;28;20462;-73
2022/08/31 05:05:04;;;;;;;10.07;9.17;;;15.70;90.10;;;17.20;68.28;98148.06;5028411;28;20484;-73
2022/08/31 05:07:33;;;;;;;10.63;9.63;;;15.80;90.10;;;17.25;69.07;98148.16;5027511;28;20543;-74
2022/08/31 05:10:00;;;;;;;9.60;8.70;;;15.80;90.50;;;17.38;67.83;98148.84;5025099;28;20521;-74
2022/08/31 05:12:27;;;;;;;9.30;8.50;;;15.80;90.00;;;17.40;68.13;98152.13;5029843;28;20464;-75
2022/08/31 05:14:55;;;;;;;9.47;8.57;;;15.80;90.10;;;17.37;68.15;98145.25;5033880;28;20528;-77
2022/08/31 05:17:22;;;;;;;10.73;9.73;;;15.80;90.20;;;17.34;67.61;98145.78;5033201;28;20484;-75
2022/08/31 05:19:52;;;;;;;11.23;10.13;;;15.90;89.30;;;17.37;67.60;98153.44;5025082;28;20468;-75
2022/08/31 05:22:20;;;;;;;10.53;9.63;;;15.90;89.20;;;17.40;67.97;98144.75;5026750;28;20459;-77
2022/08/31 05:24:48;;;;;;;11.30;10.30;;;16.00;89.50;;;17.40;67.45;98146.66;5025679;28;20460;-71
2022/08/31 05:27:15;;;;;;;14.03;9.57;;;16.00;89.20;;;17.37;67.80;98139.00;5028667;28;20539;-75
2022/08/31 05:29:43;;;;;;;10.30;9.30;;;16.10;89.40;;;17.03;67.97;98076.38;5026602;28;20476;-72
2022/08/31 05:32:10;;;;;;;11.13;9.60;;;16.10;89.80;;;17.44;67.94;98153.25;5022664;28;20480;-77
2022/08/31 05:34:38;;;;;;;13.83;10.70;;;16.20;89.20;;;17.29;68.75;98156.66;5020499;28;20493;-73
2022/08/31 05:37:05;;;;;;;10.70;9.80;;;16.20;89.00;;;17.46;68.20;98148.34;5021251;28;20559;-76
2022/08/31 05:39:33;;;;;;;12.50;11.30;;;16.30;89.20;;;17.50;67.59;98152.22;5035714;28;20528;-72
2022/08/31 05:42:01;;;;;;;12.43;11.40;;;16.30;88.40;;;17.66;67.10;98155.09;5023761;28;20459;-74
2022/08/31 05:44:28;;;;;;;11.83;10.63;;;16.40;88.00;;;17.78;66.40;98163.97;5017848;28;20468;-73
2022/08/31 05:46:56;;;;;;;11.00;10.10;;;16.60;87.30;;;17.79;66.56;98159.34;5020951;28;20459;-71
2022/08/31 05:49:23;;;;;;;10.60;9.60;;;16.60;87.00;;;18.04;64.81;98160.66;5025457;28;23097;-73
2022/08/31 05:51:50;;;;;;;11.23;10.23;;;16.80;86.00;;;18.28;64.58;98152.94;5025170;28;21175;-74
2022/08/31 05:54:18;;;;;;;11.13;10.03;;;17.00;85.70;;;18.37;64.30;98153.25;5018060;28;20462;-74
2022/08/31 05:56:46;;;;;;;10.93;8.67;;;17.20;85.50;;;18.40;63.89;98156.28;5032536;28;21052;-73
2022/08/31 05:59:14;;;;;;;9.40;8.50;;;17.30;84.70;;;18.11;63.40;98118.34;5027839;28;21086;-75
2022/08/31 06:01:42;;;;;;;9.93;9.10;;;17.40;84.00;;;18.38;63.71;98150.25;5027406;28;20796;-84
2022/08/31 06:04:10;;;;;;;11.17;9.07;;;17.40;84.20;;;18.58;63.46;98159.69;5022221;28;20452;-79
2022/08/31 06:06:38;;;;;;;9.30;8.43;;;17.40;84.10;;;18.82;62.23;98164.72;5031627;28;20461;-78
2022/08/31 06:09:08;;;;;;;10.73;9.77;;;17.60;83.50;;;18.90;62.06;98150.53;5028962;28;20461;-78
2022/08/31 06:11:37;;;;;;;9.67;8.77;;;17.80;83.50;;;18.89;61.95;98148.06;5031153;28;20462;-80
2022/08/31 06:14:05;;;;;;;8.90;8.10;;;17.90;83.00;;;18.85;61.47;98155.16;5019581;28;20458;-78
2022/08/31 06:16:35;;;;;;;9.03;8.20;;;17.90;82.30;;;19.03;61.40;98151.16;5033706;28;20453;-81
2022/08/31 06:19:03;;;;;;;9.13;8.33;;;18.00;82.70;;;19.35;61.09;98158.41;5017352;28;20473;-75
2022/08/31 06:21:33;;;;;;;8.70;7.80;;;18.10;82.60;;;19.49;60.40;98173.25;5019901;28;20837;-77
2022/08/31 06:24:02;;;;;;;10.90;8.40;;;18.40;82.10;;;19.53;60.03;98168.84;5040970;28;20480;-74
2022/08/31 06:26:31;;;;;;;10.50;8.00;;;18.40;81.60;;;19.29;60.52;98152.09;5033955;28;20486;-80
2022/08/31 06:29:01;;;;;;;8.13;7.43;;;18.40;81.70;;;19.50;60.40;98163.91;5019468;28;20516;-74
2022/08/31 06:31:33;;;;;;;8.43;7.23;;;18.40;81.70;;;19.13;60.80;98106.56;5027450;28;20515;-78
2022/08/31 06:34:03;;;;;;;8.10;7.40;;;18.40;81.90;;;19.52;59.60;98167.22;5029809;28;20489;-74
2022/08/31 06:36:32;;;;;;;8.63;7.30;;;18.40;81.10;;;19.63;59.31;98172.69;5026953;28;20454;-80
2022/08/31 06:39:01;;;;;;;9.43;7.47;;;18.50;81.10;;;19.47;60.33;98164.44;5025849;28;23335;-73
2022/08/31 06:41:31;;;;;;;7.37;6.70;;;18.50;81.20;;;19.59;58.98;98171.59;5031719;28;20481;-81
2022/08/31 06:44:00;;;;;;;7.57;6.67;;;18.50;80.50;;;19.36;59.58;98138.13;5025765;28;21138;-78
2022/08/31 06:46:29;;;;;;;7.57;6.97;;;18.50;81.00;;;19.67;59.47;98179.28;5020126;28;20502;-80
2022/08/31 06:48:57;;;;;;;7.87;7.10;;;18.60;80.90;;;19.58;59.19;98181.75;5024228;28;20468;-80
2022/08/31 06:51:26;;;;;;;6.93;6.27;;;18.60;80.50;;;19.50;59.45;98182.25;5029796;28;20446;-76
2022/08/31 06:53:53;;;;;;;7.47;6.73;;;18.50;80.40;;;19.66;59.37;98172.97;5031848;28;20453;-76
2022/08/31 06:56:25;;;;;;;7.43;6.70;;;18.60;80.60;;;19.80;58.77;98173.28;5022026;28;21247;-79
2022/08/31 06:58:53;;;;;;;7.03;6.43;;;18.70;80.30;;;19.87;58.95;98175.75;5024106;28;20535;-80
2022/08/31 07:01:26;;;;;;;9.07;6.10;;;18.70;80.40;;;20.03;58.63;98171.13;5020871;28;20463;-80
2022/08/31 07:03:54;;;;;;;6.60;6.00;;;18.90;80.20;;;20.49;57.61;98172.19;5033200;28;20462;-74
2022/08/31 07:06:26;;;;;;;6.30;5.80;;;19.20;80.00;;;20.58;56.90;98165.06;5028412;28;20520;-77
2022/08/31 07:08:56;;;;;;;6.27;5.77;;;19.40;79.30;;;20.51;56.79;98175.47;5039548;28;20459;-78
2022/08/31 07:11:27;;;;;;;5.20;4.73;;;19.50;78.80;;;20.88;55.63;98168.84;5024885;28;20500;-80
2022/08/31 07:13:56;;;;;;;6.23;5.70;;;19.70;78.50;;;20.41;55.54;98170.03;5016390;28;20463;-74
2022/08/31 07:16:26;;;;;;;6.00;5.23;;;19.70;77.50;;;20.62;55.92;98177.13;5023484;28;20473;-79
2022/08/31 07:18:57;;;;;;;6.97;5.53;;;19.60;77.90;;;20.74;55.52;98170.50;5025881;28;20823;-80
2022/08/31 07:21:28;;;;;;;6.27;5.60;;;19.70;77.50;;;20.73;55.21;98171.59;5021069;28;20486;-79
2022/08/31 07:23:59;;;;;;;6.13;5.63;;;19.80;76.90;;;20.85;54.99;98180.41;5019137;28;20542;-78
2022/08/31 07:26:31;;;;;;;6.20;4.73;;;19.80;76.90;;;21.09;54.60;98186.06;5022308;28;22191;-78
2022/08/31 07:29:03;;;;;;;5.60;5.20;;;20.00;76.90;;;20.87;54.54;98167.19;5024569;28;20512;-77
2022/08/31 07:31:39;;;;;;;6.63;6.03;;;20.20;76.20;;;20.94;54.18;98186.94;5015595;28;20856;-79
2022/08/31 07:34:09;;;;;;;5.70;5.20;;;20.10;75.70;;;20.78;54.60;98196.28;5024345;28;20875;-81
2022/08/31 07:42:13;;;;;;;5.43;4.93;;;20.00;75.40;;;21.07;53.59;98203.94;5014869;28;20486;-75
2022/08/31 07:44:41;;;;;;;5.10;4.60;;;20.00;75.30;;;21.13;53.37;98202.00;5033481;28;20509;-74
2022/08/31 07:47:10;;;;;;;5.90;5.40;;;20.10;74.80;;;21.40;53.39;98196.09;5042277;28;20557;-79
2022/08/31 07:49:46;;;;;;;5.40;4.90;;;20.30;75.40;;;21.42;52.89;98204.88;5032123;28;20546;-80
2022/08/31 07:52:18;;;;;;;5.17;4.77;;;20.30;74.70;;;21.23;52.19;98147.81;5020247;28;20457;-75
2022/08/31 07:54:45;;;;;;;11.77;5.77;;;20.40;74.60;;;21.39;52.87;98210.94;5020417;28;20456;-80
2022/08/31 07:57:12;;;;;;;5.67;5.27;;;20.50;74.40;;;21.01;52.99;98207.81;5024922;28;20465;-77
2022/08/31 07:59:40;;;;;;;4.50;4.20;;;20.20;73.60;;;20.63;53.95;98151.31;5026743;28;21007;-78
2022/08/31 08:02:09;;;;;;;7.37;4.83;;;20.10;74.50;;;20.78;53.79;98164.19;5023444;28;20465;-78
2022/08/31 08:04:41;;;;;;;5.47;5.07;;;20.20;74.50;;;21.37;52.60;98202.16;5023653;28;20457;-78
2022/08/31 08:07:11;;;;;;;4.63;4.30;;;20.30;74.20;;;21.26;52.58;98206.88;5022960;28;20994;-78
2022/08/31 08:09:39;;;;;;;4.90;4.17;;;20.40;73.60;;;21.32;52.02;98211.25;5021728;28;20468;-77
2022/08/31 08:12:08;;;;;;;4.60;4.30;;;20.40;73.40;;;21.31;52.15;98209.59;5016500;28;20784;-80
2022/08/31 08:14:37;;;;;;;12.43;5.03;;;20.50;73.20;;;21.37;52.18;98207.66;5021333;28;20467;-78
2022/08/31 08:17:07;;;;;;;5.00;4.50;;;20.40;73.10;;;21.43;51.73;98206.50;5017726;28;20450;-76
2022/08/31 08:19:35;;;;;;;5.00;4.50;;;20.50;72.70;;;21.37;52.04;98191.97;5021123;28;20590;-76
2022/08/31 08:22:03;;;;;;;5.17;4.63;;;20.60;72.80;;;21.82;51.06;98206.88;5034500;28;20639;-78
2022/08/31 08:24:31;;;;;;;5.57;4.70;;;20.70;72.50;;;21.72;50.99;98205.03;5022829;28;20460;-77
2022/08/31 08:27:01;;;;;;;4.60;4.20;;;20.90;71.90;;;21.87;50.85;98207.69;5020868;28;20465;-77
2022/08/31 08:29:28;;;;;;;7.00;5.00;;;20.90;72.10;;;22.06;50.29;98212.50;5016326;28;22017;-78
2022/08/31 08:31:56;;;;;;;5.07;4.57;;;21.00;71.90;;;22.02;50.08;98217.75;5016954;28;20462;-75
2022/08/31 08:34:25;;;;;;;4.37;4.07;;;21.10;71.40;;;22.38;49.69;98213.09;5023826;28;20855;-77
2022/08/31 08:36:52;;;;;;;3.90;3.60;;;21.20;71.70;;;21.91;50.53;98214.25;5023952;28;20515;-76
2022/08/31 08:39:20;;;;;;;4.27;3.93;;;21.10;71.10;;;21.79;50.22;98159.63;5005487;28;20484;-77
2022/08/31 08:41:48;;;;;;;5.47;4.50;;;21.10;71.40;;;22.23;50.19;98217.59;5024788;28;20472;-73
2022/08/31 08:44:18;;;;;;;4.60;4.30;;;21.30;71.30;;;22.11;49.97;98214.38;5043128;28;20462;-79
2022/08/31 08:46:51;;;;;;;4.70;4.37;;;21.20;70.70;;;22.19;49.58;98211.00;5040704;28;20461;-76
2022/08/31 08:49:25;;;;;;;4.70;4.30;;;21.30;70.50;;;22.36;49.57;98205.09;5026499;28;20556;-78
2022/08/31 08:52:01;;;;;;;4.53;4.23;;;21.30;70.80;;;22.19;49.61;98206.34;5034508;28;20451;-75
2022/08/31 08:54:33;;;;;;;5.00;4.53;;;21.40;70.40;;;22.16;50.08;98217.09;5042661;28;20468;-78
2022/08/31 08:57:08;;;;;;;5.03;4.63;;;21.30;70.60;;;22.40;49.34;98210.84;5030937;28;20455;-77
2022/08/31 08:59:37;;;;;;;4.40;4.00;;;21.30;70.30;;;22.69;49.11;98205.38;5035973;28;20478;-82
2022/08/31 09:02:07;;;;;;;4.93;4.53;;;21.50;70.60;;;22.96;48.98;98211.41;5027015;28;20559;-80
2022/08/31 09:05:09;;;;;;;5.07;4.40;;;21.80;70.70;;;22.85;49.03;98210.72;5044042;28;20521;-81
2022/08/31 09:08:17;;;;;;;4.80;4.13;;;21.90;69.90;;;23.14;48.49;98218.94;5034003;28;20464;-80
2022/08/31 09:10:59;;;;;;;4.83;4.00;;;22.00;70.00;;;23.10;48.20;98212.34;5025817;28;20604;-80
2022/08/31 09:13:42;;;;;;;4.67;4.20;;;22.10;69.20;;;23.58;47.65;98216.19;5032588;28;20550;-82
2022/08/31 09:16:24;;;;;;;6.50;3.93;;;22.30;69.70;;;23.42;48.04;98219.16;5019060;28;20487;-81
2022/08/31 09:18:58;;;;;;;4.77;4.10;;;22.40;69.60;;;23.14;47.59;98218.94;5028101;28;20555;-81
2022/08/31 09:21:32;;;;;;;4.10;3.80;;;22.20;68.60;;;22.91;48.38;98220.59;5026476;28;20484;-81
2022/08/31 09:24:02;;;;;;;6.60;4.90;;;22.10;68.70;;;22.85;48.75;98217.06;5026909;28;20467;-81
2022/08/31 09:26:34;;;;;;;5.63;4.27;;;22.00;68.90;;;23.19;48.21;98210.59;5023126;28;20467;-79
2022/08/31 09:29:03;;;;;;;5.47;4.00;;;22.10;68.90;;;23.56;47.00;98210.16;5026315;28;20556;-80
2022/08/31 09:31:42;;;;;;;3.90;3.60;;;22.40;68.20;;;23.91;46.67;98213.56;5025863;28;20451;-82
2022/08/31 09:34:27;;;;;;;5.53;4.43;;;22.70;68.40;;;24.01;46.55;98218.88;5022669;28;20494;-81
2022/08/31 09:37:15;;;;;;;4.83;4.43;;;22.90;67.80;;;23.88;46.57;98208.59;5021934;28;20515;-83
2022/08/31 09:39:47;;;;;;;4.33;3.93;;;23.00;67.70;;;24.05;46.52;98208.94;5026086;28;20897;-82
2022/08/31 09:42:29;;;;;;;4.40;3.83;;;23.00;67.60;;;23.87;46.08;98206.97;5027782;28;20461;-80
2022/08/31 09:45:00;;;;;;;5.00;4.40;;;23.00;66.80;;;23.68;46.91;98207.78;5029782;28;20634;-84
2022/08/31 09:47:50;;;;;;;5.70;4.73;;;22.80;67.40;;;23.92;46.03;98212.44;5031404;28;20455;-77
2022/08/31 09:50:32;;;;;;;6.57;4.70;;;22.80;66.60;;;23.54;46.64;98204.13;5045850;28;20466;-76
2022/08/31 09:56:14;;;;;;;4.57;4.20;;;22.60;67.60;;;23.96;46.74;98201.59;5042372;28;20941;-77
2022/08/31 09:58:49;;;;;;;4.83;4.40;;;22.70;67.70;;;23.27;47.44;98205.56;5046772;28;20489;-74
2022/08/31 10:01:26;;;;;;;4.57;4.23;;;22.50;67.00;;;23.47;47.79;98199.81;5057391;28;20445;-77
2022/08/31 10:04:19;;;;;;;5.10;4.70;;;22.40;67.60;;;23.62;47.11;98197.97;5037508;28;20970;-74
2022/08/31 10:06:55;;;;;;;4.83;4.33;;;22.50;67.50;;;23.88;46.65;98208.59;5026556;28;20463;-80
2022/08/31 10:09:36;;;;;;;5.97;4.37;;;22.70;67.20;;;23.98;45.76;98208.47;5029328;28;20454;-78
2022/08/31 10:12:08;;;;;;;4.17;3.77;;;22.80;66.70;;;24.42;44.98;98198.13;5026894;28;20442;-76
2022/08/31 10:14:42;;;;;;;4.70;4.30;;;23.10;66.50;;;24.47;45.30;98202.72;5028535;28;20505;-80
2022/08/31 10:17:16;;;;;;;4.73;4.33;;;23.30;66.40;;;24.46;44.88;98209.38;5019642;28;20470;-78
2022/08/31 10:19:53;;;;;;;5.30;3.93;;;23.40;65.90;;;24.65;44.62;98192.75;5027057;28;20478;-78
2022/08/31 10:22:31;;;;;;;4.73;4.00;;;23.40;65.70;;;24.53;45.06;98207.06;5025591;28;20497;-81
2022/08/31 10:25:25;;;;;;;4.80;4.23;;;23.60;65.60;;;24.56;44.62;98200.91;5025649;28;20537;-81
2022/08/31 10:28:00;;;;;;;4.33;3.93;;;23.40;65.60;;;24.77;44.83;98197.78;5026933;28;20454;-78
2022/08/31 10:30:35;;;;;;;4.63;4.23;;;23.50;65.70;;;25.02;43.74;98195.69;5028873;28;20445;-80
2022/08/31 10:33:11;;;;;;;4.67;4.00;;;23.70;65.40;;;24.57;44.21;98202.56;5019903;28;20458;-78
2022/08/31 10:35:53;;;;;;;5.33;4.20;;;23.70;64.90;;;24.93;43.66;98201.09;5026051;28;20545;-76
2022/08/31 10:38:31;;;;;;;4.43;4.03;;;23.80;65.10;;;25.33;43.29;98203.34;5018987;28;20458;-78
2022/08/31 10:41:10;;;;;;;5.00;4.17;;;24.00;65.10;;;24.86;43.92;98198.75;5025647;28;20601;-79